sensor_id;sensor_type;location;lat;lon;timestamp;pressure;altitude;pressure_sealevel;temperature;humidity
33845;BME280;20145;43.118;25.694;2023-04-05T00:01:27;99060.81;;;4.75;100.00
33845;BME280;20145;43.118;25.694;2023-04-05T00:03:54;99061.69;;;4.77;100.00
33845;BME280;20145;43.118;25.694;2023-04-05T00:06:22;99059.97;;;4.76;100.00
33845;BME280;20145;43.118;25.694;2023-04-05T00:08:51;99064.19;;;4.71;100.00
33845;BME280;20145;43.118;25.694;2023-04-05T00:11:20;99056.41;;;4.54;100.00
33845;BME280;20145;43.118;25.694;2023-04-05T00:13:47;99061.50;;;4.48;100.00
33845;BME280;20145;43.118;25.694;2023-04-05T00:16:13;99046.97;;;4.39;100.00
33845;BME280;20145;43.118;25.694;2023-04-05T00:18:39;99040.91;;;4.27;100.00
33845;BME280;20145;43.118;25.694;2023-04-05T00:21:11;99050.34;;;4.35;100.00
33845;BME280;20145;43.118;25.694;2023-04-05T00:23:39;99050.19;;;4.18;100.00
33845;BME280;20145;43.118;25.694;2023-04-05T00:26:06;99047.69;;;4.21;100.00
33845;BME280;20145;43.118;25.694;2023-04-05T00:28:33;99055.41;;;4.28;100.00
33845;BME280;20145;43.118;25.694;2023-04-05T00:30:59;99033.91;;;3.96;100.00
33845;BME280;20145;43.118;25.694;2023-04-05T00:33:24;99050.16;;;4.12;100.00
33845;BME280;20145;43.118;25.694;2023-04-05T00:35:50;99051.06;;;4.16;100.00
33845;BME280;20145;43.118;25.694;2023-04-05T00:38:16;99052.81;;;4.21;100.00
33845;BME280;20145;43.118;25.694;2023-04-05T00:40:41;99054.50;;;4.19;100.00
33845;BME280;20145;43.118;25.694;2023-04-05T00:43:07;99040.75;;;4.02;100.00
33845;BME280;20145;43.118;25.694;2023-04-05T00:45:33;99056.13;;;4.11;100.00
33845;BME280;20145;43.118;25.694;2023-04-05T00:47:59;99053.56;;;4.11;100.00
33845;BME280;20145;43.118;25.694;2023-04-05T00:50:26;99056.97;;;4.10;100.00
33845;BME280;20145;43.118;25.694;2023-04-05T00:52:56;99050.25;;;4.21;100.00
33845;BME280;20145;43.118;25.694;2023-04-05T00:55:22;99051.81;;;4.06;100.00
33845;BME280;20145;43.118;25.694;2023-04-05T00:57:48;99059.53;;;4.10;100.00
33845;BME280;20145;43.118;25.694;2023-04-05T01:00:14;99064.66;;;4.13;100.00
33845;BME280;20145;43.118;25.694;2023-04-05T01:02:42;99055.28;;;4.14;100.00
33845;BME280;20145;43.118;25.694;2023-04-05T01:05:39;99057.88;;;4.17;100.00
33845;BME280;20145;43.118;25.694;2023-04-05T01:08:19;99056.19;;;4.20;100.00
33845;BME280;20145;43.118;25.694;2023-04-05T01:10:50;99062.03;;;4.07;100.00
33845;BME280;20145;43.118;25.694;2023-04-05T01:13:19;99056.84;;;3.98;100.00
33845;BME280;20145;43.118;25.694;2023-04-05T01:15:45;99057.72;;;4.01;100.00
33845;BME280;20145;43.118;25.694;2023-04-05T01:18:12;99054.34;;;4.02;100.00
33845;BME280;20145;43.118;25.694;2023-04-05T01:20:42;99066.28;;;4.05;100.00
33845;BME280;20145;43.118;25.694;2023-04-05T01:23:37;99059.47;;;4.07;100.00
33845;BME280;20145;43.118;25.694;2023-04-05T01:29:37;99066.28;;;4.05;100.00
33845;BME280;20145;43.118;25.694;2023-04-05T01:32:24;99073.97;;;4.10;100.00
33845;BME280;20145;43.118;25.694;2023-04-05T01:35:28;99065.34;;;3.95;100.00
33845;BME280;20145;43.118;25.694;2023-04-05T01:38:01;99068.72;;;3.91;100.00
33845;BME280;20145;43.118;25.694;2023-04-05T01:40:29;99066.09;;;3.85;100.00
33845;BME280;20145;43.118;25.694;2023-04-05T01:42:56;99070.44;;;3.95;100.00
33845;BME280;20145;43.118;25.694;2023-04-05T01:45:21;99076.41;;;3.97;100.00
33845;BME280;20145;43.118;25.694;2023-04-05T01:47:47;99077.28;;;4.01;100.00
33845;BME280;20145;43.118;25.694;2023-04-05T01:50:12;99077.28;;;3.98;100.00
33845;BME280;20145;43.118;25.694;2023-04-05T01:52:38;99073.13;;;4.08;100.00
33845;BME280;20145;43.118;25.694;2023-04-05T01:55:04;99078.28;;;4.17;100.00
33845;BME280;20145;43.118;25.694;2023-04-05T01:57:29;99073.91;;;4.03;100.00
33845;BME280;20145;43.118;25.694;2023-04-05T01:59:55;99077.31;;;4.02;100.00
33845;BME280;20145;43.118;25.694;2023-04-05T02:02:21;99076.47;;;4.02;100.00
33845;BME280;20145;43.118;25.694;2023-04-05T02:04:46;99076.41;;;3.94;100.00
33845;BME280;20145;43.118;25.694;2023-04-05T02:07:12;99081.53;;;3.99;100.00
33845;BME280;20145;43.118;25.694;2023-04-05T02:09:37;99074.66;;;3.93;100.00
33845;BME280;20145;43.118;25.694;2023-04-05T02:12:03;99057.66;;;3.92;100.00
33845;BME280;20145;43.118;25.694;2023-04-05T02:14:28;99076.47;;;4.02;100.00
33845;BME280;20145;43.118;25.694;2023-04-05T02:16:54;99075.53;;;3.92;100.00
33845;BME280;20145;43.118;25.694;2023-04-05T02:19:22;99075.53;;;3.91;100.00
33845;BME280;20145;43.118;25.694;2023-04-05T02:21:51;99059.28;;;3.83;100.00
33845;BME280;20145;43.118;25.694;2023-04-05T02:24:20;99083.28;;;4.03;100.00
33845;BME280;20145;43.118;25.694;2023-04-05T02:26:46;99074.88;;;4.15;100.00
33845;BME280;20145;43.118;25.694;2023-04-05T02:29:12;99078.31;;;4.20;100.00
33845;BME280;20145;43.118;25.694;2023-04-05T02:31:37;99074.00;;;4.11;100.00
33845;BME280;20145;43.118;25.694;2023-04-05T02:34:03;99072.19;;;4.01;100.00
33845;BME280;20145;43.118;25.694;2023-04-05T02:36:30;99069.78;;;4.18;100.00
33845;BME280;20145;43.118;25.694;2023-04-05T02:38:55;99064.63;;;4.12;100.00
33845;BME280;20145;43.118;25.694;2023-04-05T02:41:21;99065.47;;;4.11;100.00
33845;BME280;20145;43.118;25.694;2023-04-05T02:43:49;99065.59;;;4.29;100.00
33845;BME280;20145;43.118;25.694;2023-04-05T02:46:15;99070.75;;;4.34;100.00
33845;BME280;20145;43.118;25.694;2023-04-05T02:48:40;99075.09;;;4.44;100.00
33845;BME280;20145;43.118;25.694;2023-04-05T02:51:06;99073.44;;;4.49;100.00
33845;BME280;20145;43.118;25.694;2023-04-05T02:53:31;99069.16;;;4.51;100.00
33845;BME280;20145;43.118;25.694;2023-04-05T02:55:57;99070.94;;;4.58;100.00
33845;BME280;20145;43.118;25.694;2023-04-05T02:58:24;99079.47;;;4.65;100.00
33845;BME280;20145;43.118;25.694;2023-04-05T03:00:51;99076.63;;;4.23;100.00
33845;BME280;20145;43.118;25.694;2023-04-05T03:03:21;99080.19;;;4.42;100.00
33845;BME280;20145;43.118;25.694;2023-04-05T03:05:47;99082.78;;;4.48;100.00
33845;BME280;20145;43.118;25.694;2023-04-05T03:08:14;99080.25;;;4.50;100.00
33845;BME280;20145;43.118;25.694;2023-04-05T03:10:46;99081.13;;;4.55;100.00
33845;BME280;20145;43.118;25.694;2023-04-05T03:13:13;99077.66;;;4.47;100.00
33845;BME280;20145;43.118;25.694;2023-04-05T03:15:40;99085.19;;;4.29;100.00
33845;BME280;20145;43.118;25.694;2023-04-05T03:18:06;99086.13;;;4.35;100.00
33845;BME280;20145;43.118;25.694;2023-04-05T03:20:33;99087.81;;;4.36;100.00
33845;BME280;20145;43.118;25.694;2023-04-05T03:23:10;99081.88;;;4.39;100.00
33845;BME280;20145;43.118;25.694;2023-04-05T03:25:35;99088.59;;;4.28;100.00
33845;BME280;20145;43.118;25.694;2023-04-05T03:28:05;99081.81;;;4.30;100.00
33845;BME280;20145;43.118;25.694;2023-04-05T03:30:31;99085.06;;;4.12;100.00
33845;BME280;20145;43.118;25.694;2023-04-05T03:32:57;99085.91;;;4.12;100.00
33845;BME280;20145;43.118;25.694;2023-04-05T03:35:26;99092.66;;;4.06;100.00
33845;BME280;20145;43.118;25.694;2023-04-05T03:37:52;99100.28;;;4.01;100.00
33845;BME280;20145;43.118;25.694;2023-04-05T03:40:18;99097.75;;;4.07;100.00
33845;BME280;20145;43.118;25.694;2023-04-05T03:42:43;99100.28;;;4.01;100.00
33845;BME280;20145;43.118;25.694;2023-04-05T03:45:10;99099.25;;;3.84;100.00
33845;BME280;20145;43.118;25.694;2023-04-05T03:47:36;99084.81;;;3.86;100.00
33845;BME280;20145;43.118;25.694;2023-04-05T03:50:02;99101.00;;;3.89;100.00
33845;BME280;20145;43.118;25.694;2023-04-05T03:52:28;99100.19;;;3.92;100.00
33845;BME280;20145;43.118;25.694;2023-04-05T03:54:53;99096.72;;;3.87;100.00
33845;BME280;20145;43.118;25.694;2023-04-05T03:57:19;99098.53;;;3.97;100.00
33845;BME280;20145;43.118;25.694;2023-04-05T03:59:44;99105.31;;;3.95;100.00
33845;BME280;20145;43.118;25.694;2023-04-05T04:02:10;99090.78;;;3.86;100.00
33845;BME280;20145;43.118;25.694;2023-04-05T04:04:36;99105.22;;;3.83;100.00
33845;BME280;20145;43.118;25.694;2023-04-05T04:07:01;99118.00;;;3.86;100.00
33845;BME280;20145;43.118;25.694;2023-04-05T04:09:27;99114.66;;;3.93;100.00
33845;BME280;20145;43.118;25.694;2023-04-05T04:11:54;99105.13;;;3.76;100.00
33845;BME280;20145;43.118;25.694;2023-04-05T04:14:21;99108.66;;;3.86;100.00
33845;BME280;20145;43.118;25.694;2023-04-05T04:16:47;99116.25;;;3.80;100.00
33845;BME280;20145;43.118;25.694;2023-04-05T04:19:12;99117.91;;;3.79;100.00
33845;BME280;20145;43.118;25.694;2023-04-05T04:21:38;99116.28;;;3.83;100.00
33845;BME280;20145;43.118;25.694;2023-04-05T04:24:04;99119.66;;;3.85;100.00
33845;BME280;20145;43.118;25.694;2023-04-05T04:26:30;99115.44;;;3.87;100.00
33845;BME280;20145;43.118;25.694;2023-04-05T04:29:02;99116.16;;;3.74;100.00
33845;BME280;20145;43.118;25.694;2023-04-05T04:31:30;99116.16;;;3.72;100.00
33845;BME280;20145;43.118;25.694;2023-04-05T04:33:57;99123.88;;;3.78;100.00
33845;BME280;20145;43.118;25.694;2023-04-05T04:36:23;99113.78;;;3.89;100.00
33845;BME280;20145;43.118;25.694;2023-04-05T04:38:52;99123.13;;;3.90;100.00
33845;BME280;20145;43.118;25.694;2023-04-05T04:41:17;99123.09;;;3.87;100.00
33845;BME280;20145;43.118;25.694;2023-04-05T04:43:44;99111.28;;;3.94;100.00
33845;BME280;20145;43.118;25.694;2023-04-05T04:46:09;99123.22;;;3.96;100.00
33845;BME280;20145;43.118;25.694;2023-04-05T04:48:42;99124.97;;;4.02;100.00
33845;BME280;20145;43.118;25.694;2023-04-05T04:51:08;99124.16;;;4.06;100.00
33845;BME280;20145;43.118;25.694;2023-04-05T04:53:33;99118.19;;;4.06;99.07
33845;BME280;20145;43.118;25.694;2023-04-05T04:55:59;99121.56;;;4.05;100.00
33845;BME280;20145;43.118;25.694;2023-04-05T04:58:24;99114.66;;;3.91;99.66
33845;BME280;20145;43.118;25.694;2023-04-05T05:00:50;99118.13;;;3.99;99.83
33845;BME280;20145;43.118;25.694;2023-04-05T05:03:17;99114.81;;;4.10;100.00
33845;BME280;20145;43.118;25.694;2023-04-05T05:08:08;99124.38;;;4.31;98.96
33845;BME280;20145;43.118;25.694;2023-04-05T05:10:34;99127.78;;;4.34;99.19
33845;BME280;20145;43.118;25.694;2023-04-05T05:12:59;99132.03;;;4.32;98.08
33845;BME280;20145;43.118;25.694;2023-04-05T05:15:25;99129.53;;;4.40;98.18
33845;BME280;20145;43.118;25.694;2023-04-05T05:17:51;99127.88;;;4.43;96.71
33845;BME280;20145;43.118;25.694;2023-04-05T05:20:19;99137.34;;;4.60;96.90
33845;BME280;20145;43.118;25.694;2023-04-05T05:22:45;99135.59;;;4.54;95.93
33845;BME280;20145;43.118;25.694;2023-04-05T05:25:11;99143.44;;;4.76;95.44
33845;BME280;20145;43.118;25.694;2023-04-05T05:27:37;99141.00;;;4.96;94.75
33845;BME280;20145;43.118;25.694;2023-04-05T05:30:03;99129.97;;;5.00;94.35
33845;BME280;20145;43.118;25.694;2023-04-05T05:32:29;99130.03;;;5.12;93.67
33845;BME280;20145;43.118;25.694;2023-04-05T05:34:55;99123.97;;;4.95;93.26
33845;BME280;20145;43.118;25.694;2023-04-05T05:37:31;99135.19;;;5.23;94.10
33845;BME280;20145;43.118;25.694;2023-04-05T05:39:56;99125.03;;;5.36;93.55
33845;BME280;20145;43.118;25.694;2023-04-05T05:42:22;99124.28;;;5.64;93.43
33845;BME280;20145;43.118;25.694;2023-04-05T05:44:48;99131.94;;;5.65;91.24
33845;BME280;20145;43.118;25.694;2023-04-05T05:47:13;99127.69;;;5.64;90.68
33845;BME280;20145;43.118;25.694;2023-04-05T05:49:39;99138.84;;;5.77;90.18
33845;BME280;20145;43.118;25.694;2023-04-05T05:52:05;99136.38;;;6.01;89.57
33845;BME280;20145;43.118;25.694;2023-04-05T05:54:30;99137.13;;;5.90;88.86
33845;BME280;20145;43.118;25.694;2023-04-05T05:56:56;99132.09;;;6.02;90.24
33845;BME280;20145;43.118;25.694;2023-04-05T05:59:22;99138.06;;;6.18;88.29
33845;BME280;20145;43.118;25.694;2023-04-05T06:01:47;99132.03;;;5.91;87.80
33845;BME280;20145;43.118;25.694;2023-04-05T06:04:15;99144.84;;;5.88;87.93
33845;BME280;20145;43.118;25.694;2023-04-05T06:06:41;99146.63;;;6.15;88.20
33845;BME280;20145;43.118;25.694;2023-04-05T06:09:12;99145.75;;;6.12;88.02
33845;BME280;20145;43.118;25.694;2023-04-05T06:11:38;99147.47;;;6.25;88.54
33845;BME280;20145;43.118;25.694;2023-04-05T06:14:04;99152.59;;;6.37;87.29
33845;BME280;20145;43.118;25.694;2023-04-05T06:16:29;99157.75;;;6.56;87.11
33845;BME280;20145;43.118;25.694;2023-04-05T06:18:55;99162.03;;;6.58;87.79
33845;BME280;20145;43.118;25.694;2023-04-05T06:21:21;99160.31;;;6.57;87.18
33845;BME280;20145;43.118;25.694;2023-04-05T06:23:47;99139.78;;;6.83;85.42
33845;BME280;20145;43.118;25.694;2023-04-05T06:26:17;99162.84;;;6.94;82.59
33845;BME280;20145;43.118;25.694;2023-04-05T06:28:45;99169.69;;;6.54;84.84
33845;BME280;20145;43.118;25.694;2023-04-05T06:31:15;99148.34;;;6.44;83.94
33845;BME280;20145;43.118;25.694;2023-04-05T06:33:42;99162.88;;;6.50;84.15
33845;BME280;20145;43.118;25.694;2023-04-05T06:36:08;99174.84;;;6.41;85.36
33845;BME280;20145;43.118;25.694;2023-04-05T06:38:33;99174.84;;;6.52;84.39
33845;BME280;20145;43.118;25.694;2023-04-05T06:40:59;99168.00;;;6.42;82.78
33845;BME280;20145;43.118;25.694;2023-04-05T06:43:25;99179.13;;;6.52;81.48
33845;BME280;20145;43.118;25.694;2023-04-05T06:45:50;99176.47;;;6.12;81.67
33845;BME280;20145;43.118;25.694;2023-04-05T06:48:16;99186.78;;;6.35;82.10
33845;BME280;20145;43.118;25.694;2023-04-05T06:50:42;99192.75;;;6.21;82.44
33845;BME280;20145;43.118;25.694;2023-04-05T06:53:07;99194.44;;;6.22;83.52
33845;BME280;20145;43.118;25.694;2023-04-05T06:55:33;99186.72;;;6.18;84.11
33845;BME280;20145;43.118;25.694;2023-04-05T06:57:58;99187.66;;;6.46;83.53
33845;BME280;20145;43.118;25.694;2023-04-05T07:00:24;99184.25;;;6.48;83.88
33845;BME280;20145;43.118;25.694;2023-04-05T07:02:49;99183.38;;;6.66;82.20
33845;BME280;20145;43.118;25.694;2023-04-05T07:05:15;99192.78;;;6.69;81.88
33845;BME280;20145;43.118;25.694;2023-04-05T07:07:41;99197.91;;;6.77;81.06
33845;BME280;20145;43.118;25.694;2023-04-05T07:10:09;99197.06;;;6.78;81.45
33845;BME280;20145;43.118;25.694;2023-04-05T07:12:35;99194.50;;;6.72;80.92
33845;BME280;20145;43.118;25.694;2023-04-05T07:15:01;99187.66;;;6.35;81.52
33845;BME280;20145;43.118;25.694;2023-04-05T07:17:27;99198.75;;;6.51;83.28
33845;BME280;20145;43.118;25.694;2023-04-05T07:19:52;99193.59;;;6.37;81.55
33845;BME280;20145;43.118;25.694;2023-04-05T07:22:18;99199.63;;;6.48;82.45
33845;BME280;20145;43.118;25.694;2023-04-05T07:24:44;99206.47;;;6.68;82.34
33845;BME280;20145;43.118;25.694;2023-04-05T07:27:11;99209.03;;;6.99;77.92
33845;BME280;20145;43.118;25.694;2023-04-05T07:29:37;99207.31;;;6.99;78.67
33845;BME280;20145;43.118;25.694;2023-04-05T07:32:05;99207.25;;;7.33;78.38
33845;BME280;20145;43.118;25.694;2023-04-05T07:34:33;99204.66;;;7.42;79.34
33845;BME280;20145;43.118;25.694;2023-04-05T07:36:58;99211.44;;;7.58;78.93
33845;BME280;20145;43.118;25.694;2023-04-05T07:39:24;99209.66;;;7.85;76.13
33845;BME280;20145;43.118;25.694;2023-04-05T07:41:50;99208.94;;;7.43;76.90
33845;BME280;20145;43.118;25.694;2023-04-05T07:44:16;99209.03;;;6.99;78.22
33845;BME280;20145;43.118;25.694;2023-04-05T07:46:41;99203.91;;;6.68;80.31
33845;BME280;20145;43.118;25.694;2023-04-05T07:49:10;99202.16;;;7.04;79.96
33845;BME280;20145;43.118;25.694;2023-04-05T07:51:36;99203.00;;;7.06;79.42
33845;BME280;20145;43.118;25.694;2023-04-05T07:54:03;99203.00;;;6.98;80.04
33845;BME280;20145;43.118;25.694;2023-04-05T07:56:30;99200.41;;;7.26;81.16
33845;BME280;20145;43.118;25.694;2023-04-05T07:58:57;99202.94;;;7.43;78.60
33845;BME280;20145;43.118;25.694;2023-04-05T08:01:23;99209.69;;;7.70;79.55
33845;BME280;20145;43.118;25.694;2023-04-05T08:03:54;99206.34;;;7.49;78.40
33845;BME280;20145;43.118;25.694;2023-04-05T08:06:23;99208.00;;;7.66;79.15
33845;BME280;20145;43.118;25.694;2023-04-05T08:08:49;99208.00;;;7.66;78.02
33845;BME280;20145;43.118;25.694;2023-04-05T08:11:15;99201.16;;;7.63;77.99
33845;BME280;20145;43.118;25.694;2023-04-05T08:13:41;99214.88;;;7.56;76.14
33845;BME280;20145;43.118;25.694;2023-04-05T08:16:10;99216.63;;;7.45;77.46
33845;BME280;20145;43.118;25.694;2023-04-05T08:18:36;99216.56;;;7.69;77.67
33845;BME280;20145;43.118;25.694;2023-04-05T08:21:01;99206.31;;;7.68;79.02
33845;BME280;20145;43.118;25.694;2023-04-05T08:23:27;99207.06;;;7.87;77.88
33845;BME280;20145;43.118;25.694;2023-04-05T08:25:53;99200.31;;;7.64;77.95
33845;BME280;20145;43.118;25.694;2023-04-05T08:28:18;99216.50;;;7.83;75.25
33845;BME280;20145;43.118;25.694;2023-04-05T08:30:44;99216.47;;;7.86;76.03
33845;BME280;20145;43.118;25.694;2023-04-05T08:33:13;99208.75;;;7.94;75.71
33845;BME280;20145;43.118;25.694;2023-04-05T08:35:39;99210.34;;;8.16;76.76
33845;BME280;20145;43.118;25.694;2023-04-05T08:38:08;99207.00;;;8.00;76.69
33845;BME280;20145;43.118;25.694;2023-04-05T08:40:44;99212.84;;;8.27;77.03
33845;BME280;20145;43.118;25.694;2023-04-05T08:45:58;99227.53;;;8.05;75.93
33845;BME280;20145;43.118;25.694;2023-04-05T08:48:25;99213.03;;;7.89;76.22
33845;BME280;20145;43.118;25.694;2023-04-05T08:50:53;99218.19;;;7.89;76.67
33845;BME280;20145;43.118;25.694;2023-04-05T08:53:20;99233.66;;;7.73;77.08
33845;BME280;20145;43.118;25.694;2023-04-05T08:55:50;99223.41;;;7.73;78.07
33845;BME280;20145;43.118;25.694;2023-04-05T08:58:17;99222.59;;;7.54;79.81
33845;BME280;20145;43.118;25.694;2023-04-05T09:00:45;99230.22;;;7.77;78.62
33845;BME280;20145;43.118;25.694;2023-04-05T09:03:15;99224.91;;;8.14;79.31
33845;BME280;20145;43.118;25.694;2023-04-05T09:05:44;99229.25;;;8.03;78.49
33845;BME280;20145;43.118;25.694;2023-04-05T09:08:12;99227.72;;;7.62;80.52
33845;BME280;20145;43.118;25.694;2023-04-05T09:10:38;99220.63;;;8.12;79.00
33845;BME280;20145;43.118;25.694;2023-04-05T09:13:04;99217.09;;;8.39;77.15
33845;BME280;20145;43.118;25.694;2023-04-05T09:15:29;99224.78;;;8.42;77.10
33845;BME280;20145;43.118;25.694;2023-04-05T09:17:55;99223.00;;;8.52;77.25
33845;BME280;20145;43.118;25.694;2023-04-05T09:20:21;99221.28;;;8.52;76.09
33845;BME280;20145;43.118;25.694;2023-04-05T09:22:47;99227.38;;;8.31;75.77
33845;BME280;20145;43.118;25.694;2023-04-05T09:27:57;99219.66;;;8.39;75.66
33845;BME280;20145;43.118;25.694;2023-04-05T09:30:24;99218.66;;;8.63;77.20
33845;BME280;20145;43.118;25.694;2023-04-05T09:32:54;99230.00;;;8.22;78.02
33845;BME280;20145;43.118;25.694;2023-04-05T09:35:21;99224.97;;;8.00;79.11
33845;BME280;20145;43.118;25.694;2023-04-05T09:37:52;99221.50;;;8.09;79.62
33845;BME280;20145;43.118;25.694;2023-04-05T09:40:18;99223.19;;;8.12;79.02
33845;BME280;20145;43.118;25.694;2023-04-05T09:42:45;99230.13;;;7.99;79.92
33845;BME280;20145;43.118;25.694;2023-04-05T09:45:11;99222.41;;;7.97;80.67
33845;BME280;20145;43.118;25.694;2023-04-05T09:47:37;99231.78;;;8.12;80.04
33845;BME280;20145;43.118;25.694;2023-04-05T09:50:16;99228.28;;;8.24;78.40
33845;BME280;20145;43.118;25.694;2023-04-05T09:52:43;99235.16;;;8.22;78.36
33845;BME280;20145;43.118;25.694;2023-04-05T09:55:09;99236.75;;;8.49;77.52
33845;BME280;20145;43.118;25.694;2023-04-05T09:57:37;99229.06;;;8.34;78.06
33845;BME280;20145;43.118;25.694;2023-04-05T10:00:04;99229.19;;;8.18;78.60
33845;BME280;20145;43.118;25.694;2023-04-05T10:02:37;99232.53;;;8.40;77.72
33845;BME280;20145;43.118;25.694;2023-04-05T10:05:10;99226.38;;;8.63;76.04
33845;BME280;20145;43.118;25.694;2023-04-05T10:07:38;99228.84;;;8.72;76.08
33845;BME280;20145;43.118;25.694;2023-04-05T10:10:05;99218.63;;;8.67;74.84
33845;BME280;20145;43.118;25.694;2023-04-05T10:12:31;99222.72;;;8.90;73.64
33845;BME280;20145;43.118;25.694;2023-04-05T10:14:58;99226.59;;;9.37;72.75
33845;BME280;20145;43.118;25.694;2023-04-05T10:17:27;99202.59;;;9.32;73.27
33845;BME280;20145;43.118;25.694;2023-04-05T10:20:13;99223.44;;;9.06;73.07
33845;BME280;20145;43.118;25.694;2023-04-05T10:30:46;99220.63;;;9.30;72.62
33845;BME280;20145;43.118;25.694;2023-04-05T10:38:28;99220.25;;;9.67;69.48
33845;BME280;20145;43.118;25.694;2023-04-05T10:40:59;99228.53;;;9.10;70.19
33845;BME280;20145;43.118;25.694;2023-04-05T10:43:28;99222.47;;;9.21;71.72
33845;BME280;20145;43.118;25.694;2023-04-05T10:45:56;99212.97;;;9.24;71.19
33845;BME280;20145;43.118;25.694;2023-04-05T10:48:43;99214.03;;;9.02;70.81
33845;BME280;20145;43.118;25.694;2023-04-05T10:51:12;99226.13;;;8.93;72.42
33845;BME280;20145;43.118;25.694;2023-04-05T10:53:39;99224.72;;;8.53;73.87
33845;BME280;20145;43.118;25.694;2023-04-05T10:56:05;99226.44;;;8.52;74.17
33845;BME280;20145;43.118;25.694;2023-04-05T10:58:32;99219.50;;;8.65;73.34
33845;BME280;20145;43.118;25.694;2023-04-05T11:00:59;99230.50;;;8.81;73.10
33845;BME280;20145;43.118;25.694;2023-04-05T11:08:46;99227.25;;;8.60;74.67
33845;BME280;20145;43.118;25.694;2023-04-05T11:11:17;99233.06;;;8.85;72.90
33845;BME280;20145;43.118;25.694;2023-04-05T11:13:55;99227.81;;;8.96;73.67
33845;BME280;20145;43.118;25.694;2023-04-05T11:16:22;99226.94;;;8.99;72.44
33845;BME280;20145;43.118;25.694;2023-04-05T11:18:50;99219.03;;;9.20;72.55
33845;BME280;20145;43.118;25.694;2023-04-05T11:21:24;99213.81;;;9.26;71.75
33845;BME280;20145;43.118;25.694;2023-04-05T11:24:07;99221.34;;;9.45;71.40
33845;BME280;20145;43.118;25.694;2023-04-05T11:29:09;99216.69;;;8.96;73.58
33845;BME280;20145;43.118;25.694;2023-04-05T11:31:35;99223.66;;;8.78;73.94
33845;BME280;20145;43.118;25.694;2023-04-05T11:34:05;99215.28;;;8.53;75.09
33845;BME280;20145;43.118;25.694;2023-04-05T11:36:44;99215.91;;;8.84;76.07
33845;BME280;20145;43.118;25.694;2023-04-05T11:42:10;99217.34;;;9.18;73.88
33845;BME280;20145;43.118;25.694;2023-04-05T11:47:06;99214.75;;;9.18;74.21
33845;BME280;20145;43.118;25.694;2023-04-05T11:49:33;99217.47;;;9.04;73.61
33845;BME280;20145;43.118;25.694;2023-04-05T11:52:09;99220.09;;;8.96;72.79
33845;BME280;20145;43.118;25.694;2023-04-05T11:54:36;99217.53;;;8.94;72.81
33845;BME280;20145;43.118;25.694;2023-04-05T11:57:01;99219.00;;;9.23;73.25
33845;BME280;20145;43.118;25.694;2023-04-05T11:59:34;99218.31;;;9.04;73.44
33845;BME280;20145;43.118;25.694;2023-04-05T12:02:04;99222.47;;;9.19;72.41
33845;BME280;20145;43.118;25.694;2023-04-05T12:04:32;99214.56;;;9.36;72.16
33845;BME280;20145;43.118;25.694;2023-04-05T12:07:28;99217.81;;;9.55;70.99
33845;BME280;20145;43.118;25.694;2023-04-05T12:12:38;99207.72;;;9.35;71.64
33845;BME280;20145;43.118;25.694;2023-04-05T12:15:09;99214.34;;;9.57;71.34
33845;BME280;20145;43.118;25.694;2023-04-05T12:20:07;99218.59;;;9.58;71.51
33845;BME280;20145;43.118;25.694;2023-04-05T12:22:35;99216.09;;;9.54;71.38
33845;BME280;20145;43.118;25.694;2023-04-05T12:25:01;99217.84;;;9.52;70.90
33845;BME280;20145;43.118;25.694;2023-04-05T12:27:27;99208.59;;;9.31;73.09
33845;BME280;20145;43.118;25.694;2023-04-05T12:30:18;99211.09;;;9.38;71.86
33845;BME280;20145;43.118;25.694;2023-04-05T12:32:50;99216.16;;;9.51;72.17
33845;BME280;20145;43.118;25.694;2023-04-05T12:35:25;99215.38;;;9.43;71.17
33845;BME280;20145;43.118;25.694;2023-04-05T12:37:57;99218.09;;;9.29;71.59
33845;BME280;20145;43.118;25.694;2023-04-05T12:40:24;99212.06;;;9.31;71.12
33845;BME280;20145;43.118;25.694;2023-04-05T12:42:50;99208.00;;;9.06;73.14
33845;BME280;20145;43.118;25.694;2023-04-05T12:45:16;99206.22;;;9.11;73.44
33845;BME280;20145;43.118;25.694;2023-04-05T12:47:55;99212.38;;;8.96;72.79
33845;BME280;20145;43.118;25.694;2023-04-05T12:50:28;99219.94;;;9.13;73.06
33845;BME280;20145;43.118;25.694;2023-04-05T12:55:20;99208.56;;;9.37;72.50
33845;BME280;20145;43.118;25.694;2023-04-05T12:57:54;99213.72;;;9.37;71.42
33845;BME280;20145;43.118;25.694;2023-04-05T13:00:21;99211.75;;;9.57;72.13
33845;BME280;20145;43.118;25.694;2023-04-05T13:02:53;99204.31;;;9.33;73.18
33845;BME280;20145;43.118;25.694;2023-04-05T13:05:23;99209.38;;;9.41;71.97
33845;BME280;20145;43.118;25.694;2023-04-05T13:07:49;99196.22;;;9.64;72.28
33845;BME280;20145;43.118;25.694;2023-04-05T13:10:16;99206.72;;;9.48;72.10
33845;BME280;20145;43.118;25.694;2023-04-05T13:12:42;99210.59;;;9.04;73.31
33845;BME280;20145;43.118;25.694;2023-04-05T13:15:08;99211.28;;;9.22;72.50
33845;BME280;20145;43.118;25.694;2023-04-05T13:17:34;99211.59;;;8.86;73.46
33845;BME280;20145;43.118;25.694;2023-04-05T13:19:59;99210.81;;;8.78;74.44
33845;BME280;20145;43.118;25.694;2023-04-05T13:22:25;99209.19;;;8.66;76.21
33845;BME280;20145;43.118;25.694;2023-04-05T13:24:51;99211.56;;;8.89;74.83
33845;BME280;20145;43.118;25.694;2023-04-05T13:27:19;99204.88;;;8.71;75.29
33845;BME280;20145;43.118;25.694;2023-04-05T13:29:46;99209.97;;;8.76;75.40
33845;BME280;20145;43.118;25.694;2023-04-05T13:32:12;99206.41;;;8.92;74.80
33845;BME280;20145;43.118;25.694;2023-04-05T13:34:38;99206.47;;;8.85;75.98
33845;BME280;20145;43.118;25.694;2023-04-05T13:37:03;99208.88;;;9.03;74.98
33845;BME280;20145;43.118;25.694;2023-04-05T13:39:29;99202.16;;;8.90;75.11
33845;BME280;20145;43.118;25.694;2023-04-05T13:41:55;99210.72;;;8.90;74.73
33845;BME280;20145;43.118;25.694;2023-04-05T13:44:22;99199.59;;;8.84;75.13
33845;BME280;20145;43.118;25.694;2023-04-05T13:46:47;99213.34;;;8.84;74.24